TUI8600 LFMN-EGGP
Flight info
| Callsign | TUI8600 |
|---|---|
| Flight time | 1h 47m |
| Altitude | 34000 |
| Route | BADOD8A BADOD DCT NEDRU DCT LTP DCT BULOL DCT IDAVO DCT BAGBI DCT SIZZA/N0447F360 DCT LAULY DCT BRY DCT CLM DCT KOPOR DCT VESAN DCT RATUK DCT SOVAT L613 SANDY UN57 WELIN T420 ELVOS ELVOS1L |
| Aircraft | A320/M-SDE3FGHIRWY/LB1 |
Departure
| Time | 2026-05-04 11:05 |
|---|---|
| Airport | Nice-Côte d'Azur Airport (LFMN) |
Arrival
| Time | 2026-05-04 12:53 |
|---|---|
| Airport | Liverpool John Lennon Airport (EGGP) |
| Time | Latitude | Longitude | Altitude | Speed | Heading |
|---|---|---|---|---|---|
| 2026-05-04 10:36 | 43.66398 | 7.21094 | 22 ft | 0 kts | 350° |
| 2026-05-04 10:56 | 43.66339 | 7.21137 | 22 ft | 4 kts | 304° |
| 2026-05-04 10:56 | 43.66327 | 7.21170 | 22 ft | 4 kts | 281° |
| 2026-05-04 10:56 | 43.66326 | 7.21199 | 22 ft | 0 kts | 261° |
| 2026-05-04 10:58 | 43.66325 | 7.21189 | 23 ft | 2 kts | 261° |
| 2026-05-04 10:59 | 43.66322 | 7.21164 | 22 ft | 5 kts | 262° |
| 2026-05-04 10:59 | 43.66311 | 7.21077 | 22 ft | 13 kts | 259° |
| 2026-05-04 10:59 | 43.66232 | 7.21009 | 22 ft | 19 kts | 173° |
| 2026-05-04 10:59 | 43.66079 | 7.21043 | 22 ft | 25 kts | 171° |
| 2026-05-04 11:00 | 43.65930 | 7.21093 | 22 ft | 20 kts | 190° |
| 2026-05-04 11:01 | 43.65355 | 7.20735 | 22 ft | 9 kts | 170° |
| 2026-05-04 11:02 | 43.65286 | 7.20740 | 22 ft | 11 kts | 186° |
| 2026-05-04 11:02 | 43.65223 | 7.20679 | 22 ft | 12 kts | 224° |
| 2026-05-04 11:05 | 43.66050 | 7.27284 | 2568 ft | 159 kts | 134° |
| 2026-05-04 11:06 | 43.65269 | 7.28343 | 3085 ft | 156 kts | 133° |
| 2026-05-04 11:06 | 43.64484 | 7.29352 | 3532 ft | 156 kts | 132° |
| 2026-05-04 11:06 | 43.63632 | 7.30384 | 3797 ft | 172 kts | 139° |
| 2026-05-04 11:06 | 43.62650 | 7.31409 | 4057 ft | 182 kts | 140° |
| 2026-05-04 11:08 | 43.54631 | 7.25918 | 6938 ft | 222 kts | 257° |
| 2026-05-04 11:10 | 43.60645 | 7.13256 | 10695 ft | 253 kts | 307° |
| 2026-05-04 11:12 | 43.72539 | 6.99602 | 12823 ft | 358 kts | 317° |
| 2026-05-04 11:12 | 43.74466 | 6.97401 | 13503 ft | 361 kts | 318° |
| 2026-05-04 11:12 | 43.76414 | 6.95174 | 14138 ft | 364 kts | 318° |
| 2026-05-04 11:12 | 43.78373 | 6.92930 | 14731 ft | 367 kts | 317° |
| 2026-05-04 11:13 | 43.80351 | 6.90660 | 15338 ft | 370 kts | 317° |
| 2026-05-04 11:13 | 43.82312 | 6.88403 | 15902 ft | 373 kts | 317° |
| 2026-05-04 11:13 | 43.84316 | 6.86091 | 16473 ft | 376 kts | 317° |
| 2026-05-04 11:13 | 43.86327 | 6.83765 | 17033 ft | 379 kts | 317° |
| 2026-05-04 11:14 | 43.88367 | 6.81411 | 17528 ft | 383 kts | 316° |
| 2026-05-04 11:14 | 43.90429 | 6.79036 | 18048 ft | 387 kts | 317° |
| 2026-05-04 11:14 | 43.92505 | 6.76646 | 18536 ft | 390 kts | 317° |
| 2026-05-04 11:16 | 44.09191 | 6.62711 | 21694 ft | 409 kts | 327° |
| 2026-05-04 11:16 | 44.11660 | 6.60723 | 22212 ft | 411 kts | 327° |
| 2026-05-04 11:16 | 44.14141 | 6.58719 | 22703 ft | 414 kts | 327° |
| 2026-05-04 11:17 | 44.16643 | 6.56699 | 23136 ft | 416 kts | 327° |
| 2026-05-04 11:17 | 44.19146 | 6.54677 | 23223 ft | 416 kts | 327° |
| 2026-05-04 11:19 | 44.37159 | 6.40074 | 25150 ft | 438 kts | 326° |
| 2026-05-04 11:19 | 44.39799 | 6.37922 | 25494 ft | 440 kts | 326° |
| 2026-05-04 11:19 | 44.42448 | 6.35759 | 25847 ft | 442 kts | 326° |
| 2026-05-04 11:19 | 44.45112 | 6.33586 | 26185 ft | 444 kts | 326° |
| 2026-05-04 11:20 | 44.47786 | 6.31407 | 26487 ft | 446 kts | 326° |
| 2026-05-04 11:20 | 44.50477 | 6.29213 | 26804 ft | 448 kts | 326° |
| 2026-05-04 11:20 | 44.53171 | 6.27009 | 27119 ft | 450 kts | 326° |
| 2026-05-04 11:20 | 44.55878 | 6.24789 | 27425 ft | 451 kts | 326° |
| 2026-05-04 11:22 | 44.75054 | 6.08975 | 29326 ft | 463 kts | 326° |
| 2026-05-04 11:22 | 44.77838 | 6.06677 | 29524 ft | 465 kts | 326° |
| 2026-05-04 11:23 | 44.80635 | 6.04367 | 29741 ft | 467 kts | 326° |
| 2026-05-04 11:23 | 44.83439 | 6.02047 | 29971 ft | 468 kts | 326° |
| 2026-05-04 11:24 | 45.00299 | 5.88017 | 31568 ft | 466 kts | 325° |
| 2026-05-04 11:25 | 45.03053 | 5.85726 | 31885 ft | 465 kts | 325° |
| 2026-05-04 11:25 | 45.05833 | 5.83403 | 32171 ft | 464 kts | 325° |
| 2026-05-04 11:25 | 45.08604 | 5.81067 | 32390 ft | 463 kts | 324° |
| 2026-05-04 11:26 | 45.14038 | 5.76202 | 32914 ft | 461 kts | 322° |
| 2026-05-04 11:27 | 45.32802 | 5.58783 | 34055 ft | 461 kts | 322° |
| 2026-05-04 11:28 | 45.38188 | 5.53827 | 34056 ft | 461 kts | 321° |
| 2026-05-04 11:28 | 45.42661 | 5.49699 | 34056 ft | 461 kts | 321° |
| 2026-05-04 11:29 | 45.48056 | 5.44723 | 34053 ft | 464 kts | 324° |
| 2026-05-04 11:29 | 45.53974 | 5.40774 | 34055 ft | 473 kts | 332° |
| 2026-05-04 11:33 | 45.96288 | 5.14411 | 34050 ft | 474 kts | 332° |
| 2026-05-04 11:33 | 46.02388 | 5.10569 | 34047 ft | 476 kts | 332° |
| 2026-05-04 11:34 | 46.08421 | 5.06766 | 34039 ft | 476 kts | 332° |
| 2026-05-04 11:34 | 46.14487 | 5.02917 | 34031 ft | 476 kts | 332° |
| 2026-05-04 11:35 | 46.20550 | 4.99045 | 34029 ft | 476 kts | 332° |
| 2026-05-04 11:35 | 46.26611 | 4.95158 | 34050 ft | 476 kts | 332° |
| 2026-05-04 11:36 | 46.32667 | 4.91278 | 34029 ft | 476 kts | 332° |
| 2026-05-04 11:36 | 46.38726 | 4.87389 | 34029 ft | 476 kts | 332° |
| 2026-05-04 11:37 | 46.44782 | 4.83489 | 34030 ft | 476 kts | 332° |
| 2026-05-04 11:37 | 46.50862 | 4.79572 | 34018 ft | 479 kts | 332° |
| 2026-05-04 11:38 | 46.56965 | 4.75617 | 34021 ft | 481 kts | 332° |
| 2026-05-04 11:38 | 46.63073 | 4.71656 | 34021 ft | 481 kts | 332° |
| 2026-05-04 11:39 | 46.69183 | 4.67681 | 34013 ft | 481 kts | 332° |
| 2026-05-04 11:41 | 46.90519 | 4.53760 | 34002 ft | 481 kts | 332° |
| 2026-05-04 11:41 | 46.96638 | 4.49779 | 34032 ft | 482 kts | 332° |
| 2026-05-04 11:42 | 47.02765 | 4.45781 | 34006 ft | 482 kts | 332° |
| 2026-05-04 11:42 | 47.08898 | 4.41761 | 33997 ft | 483 kts | 332° |
| 2026-05-04 11:43 | 47.15030 | 4.37742 | 33997 ft | 483 kts | 332° |
| 2026-05-04 11:43 | 47.21168 | 4.33707 | 33997 ft | 483 kts | 332° |
| 2026-05-04 11:44 | 47.27304 | 4.29651 | 33985 ft | 483 kts | 332° |
| 2026-05-04 11:44 | 47.33436 | 4.25590 | 34020 ft | 484 kts | 332° |
| 2026-05-04 11:44 | 47.36510 | 4.23552 | 34244 ft | 483 kts | 332° |
| 2026-05-04 11:45 | 47.39566 | 4.21523 | 34482 ft | 481 kts | 332° |
| 2026-05-04 11:45 | 47.42619 | 4.19497 | 34707 ft | 480 kts | 332° |
| 2026-05-04 11:45 | 47.45666 | 4.17475 | 34925 ft | 479 kts | 332° |
| 2026-05-04 11:45 | 47.48704 | 4.15456 | 35156 ft | 478 kts | 332° |
| 2026-05-04 11:46 | 47.51739 | 4.13436 | 35347 ft | 477 kts | 332° |
| 2026-05-04 11:46 | 47.54756 | 4.11419 | 35565 ft | 475 kts | 332° |
| 2026-05-04 11:46 | 47.57764 | 4.09405 | 35766 ft | 474 kts | 332° |
| 2026-05-04 11:46 | 47.60767 | 4.07397 | 35932 ft | 474 kts | 332° |
| 2026-05-04 11:47 | 47.63764 | 4.05391 | 35984 ft | 473 kts | 332° |
| 2026-05-04 11:47 | 47.69759 | 4.01380 | 35980 ft | 472 kts | 332° |
| 2026-05-04 11:48 | 47.75744 | 3.97360 | 35981 ft | 472 kts | 332° |
| 2026-05-04 11:48 | 47.81725 | 3.93322 | 35981 ft | 472 kts | 332° |
| 2026-05-04 11:49 | 47.87710 | 3.89277 | 35979 ft | 472 kts | 332° |
| 2026-05-04 11:49 | 47.93681 | 3.85230 | 35968 ft | 472 kts | 332° |
| 2026-05-04 11:50 | 47.99661 | 3.81178 | 35982 ft | 472 kts | 332° |
| 2026-05-04 11:50 | 48.05601 | 3.77132 | 35989 ft | 472 kts | 331° |
| 2026-05-04 11:51 | 48.11579 | 3.73051 | 35986 ft | 472 kts | 331° |
| 2026-05-04 11:51 | 48.17037 | 3.67829 | 35990 ft | 462 kts | 313° |
| 2026-05-04 11:52 | 48.21443 | 3.60946 | 35985 ft | 457 kts | 308° |
| 2026-05-04 11:52 | 48.25758 | 3.53927 | 35994 ft | 458 kts | 308° |
| 2026-05-04 11:53 | 48.30070 | 3.46914 | 35986 ft | 457 kts | 308° |
| 2026-05-04 11:53 | 48.34370 | 3.39883 | 36006 ft | 457 kts | 308° |
| 2026-05-04 11:55 | 48.56129 | 3.19654 | 35996 ft | 473 kts | 333° |
| 2026-05-04 11:56 | 48.62192 | 3.15756 | 36000 ft | 473 kts | 333° |
| 2026-05-04 11:56 | 48.68256 | 3.11851 | 36001 ft | 473 kts | 333° |
| 2026-05-04 11:57 | 48.74310 | 3.07943 | 36001 ft | 473 kts | 333° |
| 2026-05-04 11:57 | 48.80369 | 3.04035 | 36022 ft | 473 kts | 333° |
| 2026-05-04 11:58 | 48.86312 | 2.99800 | 36015 ft | 470 kts | 326° |
| 2026-05-04 11:58 | 48.91988 | 2.94853 | 36004 ft | 469 kts | 326° |
| 2026-05-04 11:59 | 48.97605 | 2.89927 | 35999 ft | 469 kts | 326° |
| 2026-05-04 11:59 | 49.03271 | 2.84950 | 35997 ft | 470 kts | 326° |
| 2026-05-04 12:00 | 49.08934 | 2.79961 | 35992 ft | 470 kts | 326° |
| 2026-05-04 12:00 | 49.14599 | 2.74964 | 35992 ft | 469 kts | 326° |
| 2026-05-04 12:01 | 49.20252 | 2.69964 | 35996 ft | 469 kts | 326° |
| 2026-05-04 12:02 | 49.40033 | 2.52354 | 36009 ft | 470 kts | 326° |
| 2026-05-04 12:03 | 49.45692 | 2.47296 | 36009 ft | 470 kts | 326° |
| 2026-05-04 12:03 | 49.51414 | 2.42422 | 36010 ft | 472 kts | 334° |
| 2026-05-04 12:04 | 49.57648 | 2.39310 | 36012 ft | 475 kts | 341° |
| 2026-05-04 12:04 | 49.63995 | 2.36454 | 36012 ft | 475 kts | 341° |
| 2026-05-04 12:05 | 49.70376 | 2.33556 | 36007 ft | 475 kts | 341° |
| 2026-05-04 12:05 | 49.76709 | 2.30648 | 36010 ft | 475 kts | 341° |
| 2026-05-04 12:06 | 49.83043 | 2.27743 | 36008 ft | 474 kts | 341° |
| 2026-05-04 12:06 | 49.89329 | 2.24867 | 36025 ft | 474 kts | 341° |
| 2026-05-04 12:07 | 49.95649 | 2.21963 | 36025 ft | 473 kts | 341° |
| 2026-05-04 12:07 | 50.01960 | 2.19052 | 36014 ft | 473 kts | 341° |
| 2026-05-04 12:08 | 50.08264 | 2.16137 | 36011 ft | 473 kts | 341° |
| 2026-05-04 12:08 | 50.14566 | 2.13215 | 36012 ft | 473 kts | 341° |
| 2026-05-04 12:09 | 50.20866 | 2.10282 | 36011 ft | 473 kts | 341° |
| 2026-05-04 12:09 | 50.27172 | 2.07340 | 36009 ft | 473 kts | 341° |
| 2026-05-04 12:10 | 50.33470 | 2.04363 | 36007 ft | 472 kts | 338° |
| 2026-05-04 12:10 | 50.39235 | 1.99684 | 36020 ft | 464 kts | 320° |
| 2026-05-04 12:11 | 50.44139 | 1.93207 | 36012 ft | 460 kts | 315° |
| 2026-05-04 12:11 | 50.48970 | 1.86614 | 36001 ft | 460 kts | 315° |
| 2026-05-04 12:12 | 50.53762 | 1.80048 | 36015 ft | 460 kts | 315° |
| 2026-05-04 12:12 | 50.58585 | 1.73428 | 36009 ft | 460 kts | 315° |
| 2026-05-04 12:14 | 50.77030 | 1.47942 | 36037 ft | 459 kts | 315° |
| 2026-05-04 12:15 | 50.81824 | 1.41258 | 36027 ft | 459 kts | 315° |
| 2026-05-04 12:15 | 50.86614 | 1.34567 | 36034 ft | 460 kts | 315° |
| 2026-05-04 12:16 | 50.91379 | 1.27913 | 36045 ft | 460 kts | 315° |
| 2026-05-04 12:16 | 50.96176 | 1.21198 | 36039 ft | 460 kts | 315° |
| 2026-05-04 12:17 | 51.00961 | 1.14467 | 36033 ft | 460 kts | 315° |
| 2026-05-04 12:17 | 51.05740 | 1.07718 | 36033 ft | 460 kts | 315° |
| 2026-05-04 12:18 | 51.10423 | 1.00796 | 36037 ft | 459 kts | 313° |
| 2026-05-04 12:18 | 51.14955 | 0.93653 | 36058 ft | 458 kts | 312° |
| 2026-05-04 12:19 | 51.19474 | 0.86488 | 36027 ft | 458 kts | 313° |
| 2026-05-04 12:19 | 51.24028 | 0.79367 | 36011 ft | 458 kts | 313° |
| 2026-05-04 12:20 | 51.28593 | 0.72254 | 36007 ft | 459 kts | 313° |
| 2026-05-04 12:20 | 51.33161 | 0.65127 | 36032 ft | 458 kts | 313° |
| 2026-05-04 12:21 | 51.37704 | 0.57982 | 36039 ft | 458 kts | 313° |
| 2026-05-04 12:21 | 51.42227 | 0.50824 | 36036 ft | 457 kts | 312° |
| 2026-05-04 12:22 | 51.46751 | 0.43646 | 36043 ft | 457 kts | 313° |
| 2026-05-04 12:22 | 51.51263 | 0.36478 | 36037 ft | 457 kts | 313° |
| 2026-05-04 12:23 | 51.55753 | 0.29342 | 36037 ft | 457 kts | 313° |
| 2026-05-04 12:23 | 51.60262 | 0.22141 | 36039 ft | 457 kts | 313° |
| 2026-05-04 12:24 | 51.64759 | 0.14936 | 36040 ft | 456 kts | 313° |
| 2026-05-04 12:24 | 51.69222 | 0.07679 | 36037 ft | 455 kts | 312° |
| 2026-05-04 12:25 | 51.73651 | 0.00362 | 36052 ft | 455 kts | 312° |
| 2026-05-04 12:25 | 51.78075 | -0.06969 | 36092 ft | 455 kts | 313° |
| 2026-05-04 12:26 | 51.82497 | -0.14280 | 36094 ft | 455 kts | 313° |
| 2026-05-04 12:26 | 51.86920 | -0.21591 | 36076 ft | 454 kts | 313° |
| 2026-05-04 12:27 | 51.91320 | -0.28916 | 36074 ft | 453 kts | 313° |
| 2026-05-04 12:27 | 51.95711 | -0.36250 | 36069 ft | 453 kts | 313° |
| 2026-05-04 12:28 | 52.00094 | -0.43585 | 36002 ft | 453 kts | 313° |
| 2026-05-04 12:28 | 52.02282 | -0.47259 | 35743 ft | 453 kts | 313° |
| 2026-05-04 12:28 | 52.04469 | -0.50936 | 35436 ft | 452 kts | 313° |
| 2026-05-04 12:29 | 52.06668 | -0.54636 | 34535 ft | 458 kts | 313° |
| 2026-05-04 12:29 | 52.08886 | -0.58371 | 33586 ft | 461 kts | 313° |
| 2026-05-04 12:29 | 52.11124 | -0.62140 | 32642 ft | 463 kts | 312° |
| 2026-05-04 12:29 | 52.13340 | -0.65877 | 32163 ft | 455 kts | 312° |
| 2026-05-04 12:30 | 52.15523 | -0.69567 | 31556 ft | 450 kts | 311° |
| 2026-05-04 12:30 | 52.17684 | -0.73229 | 30964 ft | 446 kts | 311° |
| 2026-05-04 12:30 | 52.19819 | -0.76860 | 30382 ft | 442 kts | 311° |
| 2026-05-04 12:30 | 52.21940 | -0.80471 | 29758 ft | 438 kts | 311° |
| 2026-05-04 12:31 | 52.24053 | -0.83928 | 29202 ft | 434 kts | 316° |
| 2026-05-04 12:31 | 52.26437 | -0.86913 | 28670 ft | 431 kts | 324° |
| 2026-05-04 12:31 | 52.28991 | -0.89447 | 28182 ft | 426 kts | 327° |
| 2026-05-04 12:31 | 52.31513 | -0.91938 | 27671 ft | 421 kts | 327° |
| 2026-05-04 12:32 | 52.34003 | -0.94412 | 27177 ft | 416 kts | 326° |
| 2026-05-04 12:32 | 52.38894 | -0.99300 | 26217 ft | 408 kts | 327° |
| 2026-05-04 12:32 | 52.41313 | -1.01725 | 25729 ft | 406 kts | 327° |
| 2026-05-04 12:33 | 52.43709 | -1.04131 | 25242 ft | 403 kts | 327° |
| 2026-05-04 12:33 | 52.46094 | -1.06530 | 24754 ft | 400 kts | 327° |
| 2026-05-04 12:33 | 52.48463 | -1.08910 | 24292 ft | 398 kts | 327° |
| 2026-05-04 12:33 | 52.50815 | -1.11275 | 23807 ft | 396 kts | 327° |
| 2026-05-04 12:34 | 52.53160 | -1.13637 | 23270 ft | 394 kts | 327° |
| 2026-05-04 12:34 | 52.55485 | -1.15986 | 22783 ft | 390 kts | 327° |
| 2026-05-04 12:34 | 52.57785 | -1.18310 | 22338 ft | 386 kts | 327° |
| 2026-05-04 12:34 | 52.60067 | -1.20611 | 21908 ft | 383 kts | 327° |
| 2026-05-04 12:35 | 52.62331 | -1.22889 | 21469 ft | 380 kts | 327° |
| 2026-05-04 12:35 | 52.64580 | -1.25156 | 21052 ft | 378 kts | 327° |
| 2026-05-04 12:35 | 52.66814 | -1.27417 | 20630 ft | 376 kts | 327° |
| 2026-05-04 12:35 | 52.69032 | -1.29673 | 20212 ft | 373 kts | 327° |
| 2026-05-04 12:36 | 52.71235 | -1.31917 | 19780 ft | 371 kts | 327° |
| 2026-05-04 12:36 | 52.73427 | -1.34149 | 19324 ft | 370 kts | 327° |
| 2026-05-04 12:36 | 52.75611 | -1.36373 | 18937 ft | 368 kts | 327° |
| 2026-05-04 12:36 | 52.77782 | -1.38586 | 18492 ft | 366 kts | 327° |
| 2026-05-04 12:37 | 52.79946 | -1.40797 | 18011 ft | 364 kts | 327° |
| 2026-05-04 12:37 | 52.82094 | -1.42991 | 17567 ft | 361 kts | 327° |
| 2026-05-04 12:37 | 52.84218 | -1.45163 | 17134 ft | 358 kts | 327° |
| 2026-05-04 12:37 | 52.86326 | -1.47322 | 16702 ft | 355 kts | 327° |
| 2026-05-04 12:38 | 52.88420 | -1.49468 | 16276 ft | 353 kts | 327° |
| 2026-05-04 12:38 | 52.90498 | -1.51603 | 15842 ft | 350 kts | 327° |
| 2026-05-04 12:38 | 52.92562 | -1.53730 | 15415 ft | 348 kts | 327° |
| 2026-05-04 12:38 | 52.94615 | -1.55850 | 15005 ft | 347 kts | 327° |
| 2026-05-04 12:39 | 52.96664 | -1.57964 | 14590 ft | 346 kts | 327° |
| 2026-05-04 12:39 | 52.98673 | -1.60033 | 14174 ft | 344 kts | 327° |
| 2026-05-04 12:39 | 53.00729 | -1.62155 | 13766 ft | 342 kts | 327° |
| 2026-05-04 12:39 | 53.02739 | -1.64233 | 13313 ft | 340 kts | 327° |
| 2026-05-04 12:40 | 53.04706 | -1.66274 | 12902 ft | 337 kts | 327° |
| 2026-05-04 12:40 | 53.06688 | -1.68330 | 12423 ft | 336 kts | 327° |
| 2026-05-04 12:40 | 53.08655 | -1.70371 | 12039 ft | 331 kts | 327° |
| 2026-05-04 12:40 | 53.10620 | -1.72413 | 11490 ft | 332 kts | 327° |
| 2026-05-04 12:41 | 53.12559 | -1.74431 | 11134 ft | 327 kts | 327° |
| 2026-05-04 12:41 | 53.14479 | -1.76430 | 10728 ft | 320 kts | 327° |
| 2026-05-04 12:41 | 53.16326 | -1.78354 | 10607 ft | 308 kts | 326° |
| 2026-05-04 12:41 | 53.18116 | -1.80224 | 10459 ft | 298 kts | 326° |
| 2026-05-04 12:42 | 53.19859 | -1.82047 | 10176 ft | 294 kts | 326° |
| 2026-05-04 12:42 | 53.21576 | -1.83842 | 9722 ft | 288 kts | 326° |
| 2026-05-04 12:42 | 53.23179 | -1.85812 | 9355 ft | 284 kts | 314° |
| 2026-05-04 12:42 | 53.24419 | -1.88341 | 9018 ft | 281 kts | 301° |
| 2026-05-04 12:43 | 53.25316 | -1.91223 | 8674 ft | 279 kts | 296° |
| 2026-05-04 12:43 | 53.26178 | -1.94120 | 8336 ft | 278 kts | 296° |
| 2026-05-04 12:43 | 53.27037 | -1.96999 | 7998 ft | 276 kts | 296° |
| 2026-05-04 12:43 | 53.27891 | -1.99868 | 7663 ft | 275 kts | 296° |
| 2026-05-04 12:44 | 53.28741 | -2.02724 | 7324 ft | 274 kts | 296° |
| 2026-05-04 12:44 | 53.29586 | -2.05564 | 6998 ft | 272 kts | 296° |
| 2026-05-04 12:44 | 53.30427 | -2.08389 | 6666 ft | 271 kts | 297° |
| 2026-05-04 12:44 | 53.31263 | -2.11204 | 6334 ft | 270 kts | 297° |
| 2026-05-04 12:45 | 53.32095 | -2.14013 | 6005 ft | 269 kts | 296° |
| 2026-05-04 12:45 | 53.32919 | -2.16803 | 5670 ft | 268 kts | 297° |
| 2026-05-04 12:45 | 53.33733 | -2.19557 | 5356 ft | 267 kts | 297° |
| 2026-05-04 12:45 | 53.34553 | -2.22332 | 5023 ft | 265 kts | 297° |
| 2026-05-04 12:46 | 53.35305 | -2.25133 | 4687 ft | 264 kts | 288° |
| 2026-05-04 12:46 | 53.35618 | -2.28158 | 4306 ft | 263 kts | 271° |
| 2026-05-04 12:46 | 53.35528 | -2.31214 | 3982 ft | 262 kts | 266° |
| 2026-05-04 12:46 | 53.35414 | -2.34252 | 3663 ft | 261 kts | 266° |
| 2026-05-04 12:47 | 53.35305 | -2.37277 | 3347 ft | 259 kts | 266° |
| 2026-05-04 12:47 | 53.35199 | -2.40251 | 3060 ft | 252 kts | 266° |
| 2026-05-04 12:47 | 53.35098 | -2.43090 | 3002 ft | 236 kts | 266° |
| 2026-05-04 12:47 | 53.35001 | -2.45767 | 3006 ft | 228 kts | 266° |
| 2026-05-04 12:48 | 53.34908 | -2.48342 | 3005 ft | 213 kts | 266° |
| 2026-05-04 12:48 | 53.34817 | -2.50767 | 3004 ft | 205 kts | 266° |
| 2026-05-04 12:48 | 53.34728 | -2.53135 | 3005 ft | 202 kts | 266° |
| 2026-05-04 12:48 | 53.34640 | -2.55475 | 3005 ft | 201 kts | 266° |
| 2026-05-04 12:49 | 53.34554 | -2.57813 | 3004 ft | 202 kts | 267° |
| 2026-05-04 12:49 | 53.34466 | -2.60146 | 2875 ft | 198 kts | 266° |
| 2026-05-04 12:49 | 53.34371 | -2.62417 | 2595 ft | 193 kts | 266° |
| 2026-05-04 12:49 | 53.34275 | -2.64636 | 2335 ft | 189 kts | 266° |
| 2026-05-04 12:50 | 53.34180 | -2.66798 | 2072 ft | 184 kts | 266° |
| 2026-05-04 12:50 | 53.34088 | -2.68866 | 1834 ft | 171 kts | 266° |
| 2026-05-04 12:50 | 53.34003 | -2.70782 | 1605 ft | 160 kts | 266° |
| 2026-05-04 12:50 | 53.33923 | -2.72582 | 1390 ft | 152 kts | 266° |
| 2026-05-04 12:51 | 53.33845 | -2.74328 | 1186 ft | 149 kts | 266° |
| 2026-05-04 12:51 | 53.33767 | -2.76050 | 984 ft | 148 kts | 266° |
| 2026-05-04 12:51 | 53.33691 | -2.77751 | 812 ft | 145 kts | 266° |
| 2026-05-04 12:51 | 53.33615 | -2.79431 | 594 ft | 144 kts | 266° |
| 2026-05-04 12:52 | 53.33541 | -2.81068 | 403 ft | 143 kts | 266° |
| 2026-05-04 12:52 | 53.33466 | -2.82721 | 211 ft | 142 kts | 266° |
| 2026-05-04 12:52 | 53.33392 | -2.84363 | 92 ft | 132 kts | 266° |
| 2026-05-04 12:52 | 53.33342 | -2.85473 | 91 ft | 53 kts | 265° |
| 2026-05-04 12:53 | 53.33318 | -2.85978 | 89 ft | 42 kts | 265° |
| 2026-05-04 12:53 | 53.33326 | -2.86392 | 89 ft | 31 kts | 317° |
| 2026-05-04 12:53 | 53.33448 | -2.86396 | 90 ft | 14 kts | 46° |
| 2026-05-04 12:53 | 53.33471 | -2.86246 | 89 ft | 13 kts | 86° |
| 2026-05-04 12:54 | 53.33477 | -2.86100 | 89 ft | 12 kts | 85° |
| 2026-05-04 12:54 | 53.33484 | -2.85973 | 92 ft | 10 kts | 80° |
| 2026-05-04 12:54 | 53.33532 | -2.85936 | 89 ft | 8 kts | 356° |
| 2026-05-04 12:54 | 53.33579 | -2.85947 | 93 ft | 6 kts | 336° |
| 2026-05-04 12:55 | 53.33592 | -2.85996 | 89 ft | 4 kts | 273° |
| 2026-05-04 12:55 | 53.33591 | -2.86039 | 90 ft | 3 kts | 267° |
| 2026-05-04 12:55 | 53.33590 | -2.86067 | 89 ft | 2 kts | 266° |
| 2026-05-04 12:55 | 53.33593 | -2.86081 | 89 ft | 1 kts | 296° |
| 2026-05-04 12:56 | 53.33626 | -2.86094 | 89 ft | 6 kts | 353° |
| 2026-05-04 12:56 | 53.33642 | -2.86097 | 89 ft | 0 kts | 355° |